createdAt,value
2023-04-15T00:01:48.565Z,47.26
2023-04-15T00:04:15.217Z,47.16
2023-04-15T00:06:41.865Z,47.06
2023-04-15T00:09:08.445Z,47.08
2023-04-15T00:11:34.994Z,47.02
2023-04-15T00:14:01.545Z,47.05
2023-04-15T00:16:28.142Z,47.12
2023-04-15T00:18:54.711Z,47.21
2023-04-15T00:21:21.288Z,46.98
2023-04-15T00:23:47.831Z,47.19
2023-04-15T00:26:14.420Z,47.19
2023-04-15T00:28:40.978Z,47.10
2023-04-15T00:31:07.546Z,47.11
2023-04-15T00:33:34.208Z,47.12
2023-04-15T00:36:00.774Z,47.29
2023-04-15T00:38:27.350Z,47.21
2023-04-15T00:40:53.897Z,47.05
2023-04-15T00:43:20.461Z,47.18
2023-04-15T00:45:47.034Z,46.97
2023-04-15T00:48:13.651Z,47.26
2023-04-15T00:50:40.202Z,47.25
2023-04-15T00:53:06.817Z,47.30
2023-04-15T00:55:33.358Z,47.04
2023-04-15T00:57:59.924Z,47.06
2023-04-15T01:00:26.490Z,47.08
2023-04-15T01:02:53.221Z,46.94
2023-04-15T01:05:19.844Z,47.05
2023-04-15T01:07:46.412Z,46.87
2023-04-15T01:10:12.951Z,47.01
2023-04-15T01:12:39.488Z,47.07
2023-04-15T01:15:06.028Z,47.06
2023-04-15T01:17:32.594Z,47.13
2023-04-15T01:19:59.190Z,47.03
2023-04-15T01:22:25.753Z,46.99
2023-04-15T01:24:52.317Z,47.22
2023-04-15T01:27:18.872Z,47.15
2023-04-15T01:29:45.427Z,46.99
2023-04-15T01:32:11.974Z,46.97
2023-04-15T01:34:38.557Z,47.20
2023-04-15T01:37:05.126Z,47.12
2023-04-15T01:39:31.661Z,47.00
2023-04-15T01:41:58.229Z,47.06
2023-04-15T01:44:24.789Z,47.14
2023-04-15T01:46:51.515Z,47.08
2023-04-15T01:49:18.110Z,47.08
2023-04-15T01:54:11.153Z,47.16
2023-04-15T01:56:37.698Z,46.98
2023-04-15T01:59:04.250Z,47.00
2023-04-15T02:01:30.883Z,46.99
2023-04-15T02:03:57.528Z,47.00
2023-04-15T02:06:24.108Z,46.83
2023-04-15T02:08:50.647Z,46.96
2023-04-15T02:11:17.205Z,47.11
2023-04-15T02:13:43.765Z,46.93
2023-04-15T02:16:10.325Z,46.91
2023-04-15T02:18:36.893Z,47.22
2023-04-15T02:21:03.489Z,46.96
2023-04-15T02:23:30.063Z,47.36
2023-04-15T02:25:56.618Z,47.08
2023-04-15T02:28:23.200Z,47.01
2023-04-15T02:30:49.749Z,46.78
2023-04-15T02:33:16.285Z,46.92
2023-04-15T02:35:42.870Z,47.05
2023-04-15T02:38:09.419Z,46.98
2023-04-15T02:40:35.996Z,46.84
2023-04-15T02:43:02.558Z,46.93
2023-04-15T02:45:29.121Z,47.05
2023-04-15T02:47:55.701Z,47.04
2023-04-15T02:50:22.299Z,47.10
2023-04-15T02:52:48.854Z,46.81
2023-04-15T02:55:15.427Z,46.72
2023-04-15T02:57:42.010Z,46.91
2023-04-15T03:00:08.577Z,46.99
2023-04-15T03:02:35.328Z,46.90
2023-04-15T03:05:01.957Z,47.04
2023-04-15T03:07:28.508Z,47.07
2023-04-15T03:09:55.048Z,46.89
2023-04-15T03:12:21.586Z,47.35
2023-04-15T03:14:48.142Z,47.09
2023-04-15T03:17:14.708Z,47.06
2023-04-15T03:19:41.249Z,47.05
2023-04-15T03:22:07.816Z,46.93
2023-04-15T03:24:34.354Z,46.88
2023-04-15T03:27:00.897Z,46.92
2023-04-15T03:29:27.480Z,46.95
2023-04-15T03:31:54.019Z,47.16
2023-04-15T03:34:20.597Z,47.21
2023-04-15T03:36:47.179Z,47.04
2023-04-15T03:39:13.770Z,47.21
2023-04-15T03:41:40.328Z,47.21
2023-04-15T03:44:06.879Z,47.08
2023-04-15T03:46:33.484Z,46.90
2023-04-15T03:49:00.376Z,46.85
2023-04-15T03:51:27.198Z,46.90
2023-04-15T03:53:53.741Z,46.89
2023-04-15T03:56:20.300Z,46.87
2023-04-15T03:58:46.867Z,46.89
2023-04-15T04:01:13.471Z,47.04
2023-04-15T04:03:40.236Z,46.99
2023-04-15T04:06:06.928Z,47.09
2023-04-15T04:08:33.481Z,46.95
2023-04-15T04:11:00.042Z,46.94
2023-04-15T04:13:26.610Z,47.06
2023-04-15T04:15:53.197Z,46.99
2023-04-15T04:18:19.808Z,46.90
2023-04-15T04:20:46.352Z,46.74
2023-04-15T04:23:12.894Z,46.87
2023-04-15T04:25:39.430Z,47.09
2023-04-15T04:28:05.965Z,46.97
2023-04-15T04:30:32.530Z,47.01
2023-04-15T04:32:59.217Z,46.95
2023-04-15T04:35:25.848Z,46.72
2023-04-15T04:37:52.442Z,46.95
2023-04-15T04:40:19.030Z,47.03
2023-04-15T04:42:45.586Z,47.06
2023-04-15T04:45:12.162Z,47.13
2023-04-15T04:47:38.732Z,47.12
2023-04-15T04:50:05.313Z,47.26
2023-04-15T04:52:31.862Z,47.08
2023-04-15T04:54:58.418Z,47.46
2023-04-15T04:57:24.979Z,47.28
2023-04-15T04:59:51.527Z,47.24
2023-04-15T05:02:18.115Z,46.87
2023-04-15T05:04:44.734Z,46.85
2023-04-15T05:07:11.288Z,47.06
2023-04-15T05:09:37.826Z,47.22
2023-04-15T05:12:07.140Z,47.26
2023-04-15T05:14:33.684Z,47.26
2023-04-15T05:17:00.236Z,47.45
2023-04-15T05:19:26.791Z,47.04
2023-04-15T05:21:53.339Z,47.25
2023-04-15T05:24:19.884Z,47.28
2023-04-15T05:26:46.423Z,47.11
2023-04-15T05:29:13.012Z,47.23
2023-04-15T05:31:39.602Z,47.10
2023-04-15T05:34:06.192Z,46.98
2023-04-15T05:36:32.745Z,46.97
2023-04-15T05:38:59.657Z,47.05
2023-04-15T05:41:26.367Z,47.03
2023-04-15T05:43:52.923Z,46.97
2023-04-15T05:46:19.536Z,46.80
2023-04-15T05:48:46.133Z,46.90
2023-04-15T05:51:12.697Z,46.84
2023-04-15T05:53:39.261Z,46.90
2023-04-15T05:56:05.839Z,46.83
2023-04-15T06:00:58.933Z,46.79
2023-04-15T06:03:25.602Z,47.03
2023-04-15T06:05:52.239Z,46.86
2023-04-15T06:08:18.793Z,47.08
2023-04-15T06:10:45.341Z,46.76
2023-04-15T06:13:11.899Z,47.00
2023-04-15T06:15:38.491Z,46.77
2023-04-15T06:18:05.058Z,46.77
2023-04-15T06:20:31.609Z,46.79
2023-04-15T06:22:58.156Z,46.83
2023-04-15T06:25:24.716Z,46.90
2023-04-15T06:27:51.254Z,46.97
2023-04-15T06:30:17.797Z,46.93
2023-04-15T06:32:44.441Z,47.07
2023-04-15T06:35:11.088Z,46.92
2023-04-15T06:37:37.653Z,47.07
2023-04-15T06:40:04.191Z,47.13
2023-04-15T06:42:30.746Z,47.01
2023-04-15T06:44:57.303Z,47.16
2023-04-15T06:47:23.862Z,46.88
2023-04-15T06:49:50.432Z,46.88
2023-04-15T06:52:16.970Z,46.97
2023-04-15T06:54:43.524Z,46.96
2023-04-15T06:57:10.055Z,46.78
2023-04-15T06:59:36.598Z,46.74
2023-04-15T07:02:03.150Z,46.67
2023-04-15T07:04:29.776Z,47.04
2023-04-15T07:06:56.385Z,46.86
2023-04-15T07:09:22.924Z,46.89
2023-04-15T07:11:49.482Z,46.91
2023-04-15T07:14:16.038Z,46.75
2023-04-15T07:16:42.648Z,46.66
2023-04-15T07:19:09.257Z,47.85
2023-04-15T07:21:35.823Z,48.18
2023-04-15T07:24:02.367Z,48.31
2023-04-15T07:26:28.915Z,48.04
2023-04-15T07:28:55.451Z,48.22
2023-04-15T07:31:22.031Z,48.52
2023-04-15T07:33:48.663Z,48.22
2023-04-15T07:36:15.203Z,48.50
2023-04-15T07:38:41.756Z,48.42
2023-04-15T07:41:08.326Z,48.34
2023-04-15T07:43:34.868Z,48.73
2023-04-15T07:46:01.478Z,49.03
2023-04-15T07:48:28.049Z,50.05
2023-04-15T07:50:54.600Z,51.35
2023-04-15T07:53:21.162Z,51.63
2023-04-15T07:55:47.719Z,53.31
2023-04-15T07:58:14.266Z,53.03
2023-04-15T08:00:40.794Z,54.65
2023-04-15T08:03:07.474Z,54.97
2023-04-15T08:05:34.185Z,54.81
2023-04-15T08:08:00.773Z,54.71
2023-04-15T08:10:27.308Z,54.94
2023-04-15T08:12:53.876Z,55.29
2023-04-15T08:15:20.444Z,55.79
2023-04-15T08:17:47.054Z,56.50
2023-04-15T08:20:13.649Z,55.17
2023-04-15T08:22:40.219Z,55.23
2023-04-15T08:25:06.786Z,54.91
2023-04-15T08:27:33.331Z,53.96
2023-04-15T08:30:01.134Z,53.60
2023-04-15T08:32:28.733Z,52.88
2023-04-15T08:34:55.311Z,52.35
2023-04-15T08:37:21.864Z,51.64
2023-04-15T08:39:48.423Z,50.94
2023-04-15T08:42:14.989Z,51.02
2023-04-15T08:44:41.557Z,50.73
2023-04-15T08:47:08.155Z,49.64
2023-04-15T08:49:34.794Z,50.32
2023-04-15T08:52:01.349Z,50.04
2023-04-15T08:54:27.908Z,49.53
2023-04-15T08:56:54.567Z,48.33
2023-04-15T08:59:21.202Z,47.65
2023-04-15T09:01:47.800Z,47.44
2023-04-15T09:04:14.546Z,47.46
2023-04-15T09:06:41.157Z,47.99
2023-04-15T09:09:07.691Z,48.87
2023-04-15T09:11:34.268Z,49.27
2023-04-15T09:14:00.816Z,49.50
2023-04-15T09:16:27.434Z,49.44
2023-04-15T09:18:54.007Z,49.54
2023-04-15T09:21:20.540Z,49.82
2023-04-15T09:23:47.087Z,50.38
2023-04-15T09:26:13.640Z,50.63
2023-04-15T09:28:40.195Z,51.22
2023-04-15T09:31:06.757Z,51.18
2023-04-15T09:33:33.327Z,51.06
2023-04-15T09:35:59.884Z,50.87
2023-04-15T09:38:26.472Z,50.96
2023-04-15T09:40:53.020Z,50.64
2023-04-15T09:43:19.584Z,50.73
2023-04-15T09:45:46.155Z,50.64
2023-04-15T09:48:12.720Z,50.85
2023-04-15T09:50:39.274Z,50.73
2023-04-15T09:53:05.828Z,50.54
2023-04-15T09:55:32.404Z,50.54
2023-04-15T09:57:58.938Z,49.93
2023-04-15T10:00:25.489Z,49.76
2023-04-15T10:02:52.091Z,49.46
2023-04-15T10:05:18.721Z,48.75
2023-04-15T10:07:45.291Z,48.86
2023-04-15T10:10:11.853Z,48.90
2023-04-15T10:12:38.409Z,48.56
2023-04-15T10:15:04.933Z,48.67
2023-04-15T10:17:31.875Z,48.84
2023-04-15T10:19:58.489Z,49.28
2023-04-15T10:22:25.024Z,50.51
2023-04-15T10:24:51.564Z,49.91
2023-04-15T10:27:18.147Z,49.61
2023-04-15T10:29:44.713Z,49.60
2023-04-15T10:32:11.262Z,49.08
2023-04-15T10:34:37.791Z,49.20
2023-04-15T10:37:04.358Z,49.05
2023-04-15T10:39:30.936Z,49.21
2023-04-15T10:41:57.490Z,49.26
2023-04-15T10:44:24.058Z,49.42
2023-04-15T10:46:50.648Z,49.90
2023-04-15T10:49:17.339Z,50.04
2023-04-15T10:51:43.903Z,50.30
2023-04-15T10:54:10.467Z,49.97
2023-04-15T10:56:37.015Z,50.02
2023-04-15T10:59:03.562Z,49.86
2023-04-15T11:01:30.104Z,49.71
2023-04-15T11:03:56.764Z,49.40
2023-04-15T11:06:23.473Z,49.59
2023-04-15T11:08:50.014Z,49.61
2023-04-15T11:11:16.557Z,49.59
2023-04-15T11:13:43.106Z,49.68
2023-04-15T11:16:09.672Z,49.65
2023-04-15T11:18:36.257Z,49.50
2023-04-15T11:21:02.808Z,49.72
2023-04-15T11:23:29.346Z,49.26
2023-04-15T11:25:55.876Z,49.16
2023-04-15T11:28:22.430Z,48.95
2023-04-15T11:30:48.969Z,49.04
2023-04-15T11:33:15.538Z,48.89
2023-04-15T11:35:42.085Z,48.73
2023-04-15T11:38:08.691Z,48.31
2023-04-15T11:40:35.280Z,48.95
2023-04-15T11:43:01.842Z,48.74
2023-04-15T11:45:28.397Z,48.57
2023-04-15T11:47:54.982Z,48.44
2023-04-15T11:50:21.681Z,48.53
2023-04-15T11:52:48.230Z,48.50
2023-04-15T11:55:14.772Z,48.44
2023-04-15T11:57:41.309Z,48.55
2023-04-15T12:00:07.876Z,48.46
2023-04-15T12:02:34.497Z,48.41
2023-04-15T12:05:01.173Z,48.23
2023-04-15T12:07:27.728Z,48.20
2023-04-15T12:09:54.366Z,48.40
2023-04-15T12:12:20.912Z,48.33
2023-04-15T12:14:47.441Z,48.17
2023-04-15T12:17:14.032Z,48.21
2023-04-15T12:19:40.630Z,48.03
2023-04-15T12:22:07.167Z,47.90
2023-04-15T12:24:33.703Z,48.06
2023-04-15T12:27:00.262Z,47.82
2023-04-15T12:29:26.840Z,47.77
2023-04-15T12:31:53.369Z,47.74
2023-04-15T12:34:19.939Z,47.62
2023-04-15T12:36:46.473Z,47.36
2023-04-15T12:39:13.014Z,47.61
2023-04-15T12:41:39.564Z,47.55
2023-04-15T12:44:06.289Z,47.62
2023-04-15T12:46:33.060Z,47.57
2023-04-15T12:48:59.616Z,47.52
2023-04-15T12:51:26.154Z,47.40
2023-04-15T12:53:52.690Z,47.37
2023-04-15T12:56:19.237Z,47.43
2023-04-15T12:58:45.791Z,47.54
2023-04-15T13:01:12.319Z,47.20
2023-04-15T13:03:39.009Z,47.29
2023-04-15T13:06:05.680Z,47.19
2023-04-15T13:08:32.212Z,47.27
2023-04-15T13:10:58.767Z,47.20
2023-04-15T13:13:25.333Z,47.16
2023-04-15T13:15:51.913Z,47.14
2023-04-15T13:18:18.479Z,47.13
2023-04-15T13:20:45.031Z,47.08
2023-04-15T13:23:11.592Z,47.13
2023-04-15T13:25:38.169Z,47.16
2023-04-15T13:28:04.719Z,47.35
2023-04-15T13:30:31.294Z,47.39
2023-04-15T13:32:57.915Z,47.48
2023-04-15T13:35:24.500Z,47.30
2023-04-15T13:37:51.050Z,46.94
2023-04-15T13:40:17.609Z,46.91
2023-04-15T13:42:44.136Z,46.76
2023-04-15T13:45:10.676Z,47.00
2023-04-15T13:47:37.232Z,46.89
2023-04-15T13:50:03.870Z,46.68
2023-04-15T13:52:30.434Z,46.75
2023-04-15T13:55:19.502Z,46.64
2023-04-15T13:57:43.531Z,46.63
2023-04-15T14:00:10.073Z,46.62
2023-04-15T14:02:36.717Z,46.67
2023-04-15T14:05:03.459Z,46.68
2023-04-15T14:07:30.007Z,46.53
2023-04-15T14:09:56.566Z,46.86
2023-04-15T14:12:23.096Z,46.91
2023-04-15T14:14:49.642Z,46.88
2023-04-15T14:17:16.189Z,46.80
2023-04-15T14:19:42.713Z,46.83
2023-04-15T14:22:09.257Z,47.12
2023-04-15T14:24:35.801Z,46.99
2023-04-15T14:27:02.346Z,46.85
2023-04-15T14:29:28.899Z,46.86
2023-04-15T14:32:11.439Z,46.77
2023-04-15T14:34:39.025Z,46.91
2023-04-15T14:37:05.554Z,46.98
2023-04-15T14:39:32.086Z,47.11
2023-04-15T14:41:58.649Z,47.67
2023-04-15T14:44:25.177Z,47.56
2023-04-15T14:46:51.721Z,47.50
2023-04-15T14:49:18.283Z,47.27
2023-04-15T14:51:44.823Z,47.14
2023-04-15T14:54:11.383Z,46.96
2023-04-15T14:56:37.946Z,46.85
2023-04-15T14:59:04.754Z,47.05
2023-04-15T15:01:31.583Z,46.96
2023-04-15T15:03:58.169Z,46.83
2023-04-15T15:06:24.769Z,47.06
2023-04-15T15:08:51.310Z,46.91
2023-04-15T15:11:17.844Z,46.68
2023-04-15T15:13:44.416Z,46.53
2023-04-15T15:16:13.107Z,46.41
2023-04-15T15:18:40.924Z,46.30
2023-04-15T15:21:07.463Z,46.21
2023-04-15T15:23:33.994Z,46.36
2023-04-15T15:26:00.563Z,46.61
2023-04-15T15:28:27.136Z,46.33
2023-04-15T15:30:53.706Z,46.68
2023-04-15T15:33:20.248Z,46.65
2023-04-15T15:35:46.803Z,46.67
2023-04-15T15:38:13.320Z,46.42
2023-04-15T15:40:39.845Z,46.40
2023-04-15T15:43:06.428Z,46.19
2023-04-15T15:45:32.967Z,46.07
2023-04-15T15:47:59.561Z,46.20
2023-04-15T15:50:26.188Z,45.98
2023-04-15T15:52:52.755Z,46.00
2023-04-15T15:55:19.302Z,46.13
2023-04-15T15:57:45.842Z,46.28
2023-04-15T16:00:12.952Z,46.08
2023-04-15T16:03:05.092Z,45.94
2023-04-15T16:05:26.217Z,45.85
2023-04-15T16:07:52.781Z,45.79
2023-04-15T16:10:19.343Z,45.85
2023-04-15T16:12:46.005Z,45.66
2023-04-15T16:15:12.549Z,45.80
2023-04-15T16:17:39.116Z,45.80
2023-04-15T16:20:05.857Z,45.60
2023-04-15T16:22:32.457Z,45.82
2023-04-15T16:24:59.035Z,45.66
2023-04-15T16:27:25.572Z,45.77
2023-04-15T16:29:52.145Z,45.55
2023-04-15T16:32:18.747Z,45.74
2023-04-15T16:34:45.346Z,45.74
2023-04-15T16:37:11.889Z,45.85
2023-04-15T16:39:38.422Z,45.88
2023-04-15T16:42:04.968Z,45.95
2023-04-15T16:44:31.511Z,45.82
2023-04-15T16:46:58.048Z,45.82
2023-04-15T16:49:24.600Z,45.75
2023-04-15T16:51:52.901Z,45.77
2023-04-15T16:54:20.656Z,45.88
2023-04-15T16:56:47.209Z,45.80
2023-04-15T16:59:13.774Z,45.88
2023-04-15T17:01:40.426Z,45.70
2023-04-15T17:04:07.185Z,45.57
2023-04-15T17:06:33.840Z,45.73
2023-04-15T17:09:00.419Z,45.76
2023-04-15T17:11:26.960Z,45.56
2023-04-15T17:13:53.509Z,45.68
2023-04-15T17:16:20.172Z,45.62
2023-04-15T17:18:46.841Z,45.87
2023-04-15T17:21:13.387Z,45.68
2023-04-15T17:23:39.935Z,45.56
2023-04-15T17:26:06.492Z,45.61
2023-04-15T17:28:33.063Z,45.74
2023-04-15T17:30:59.619Z,45.62
2023-04-15T17:33:59.915Z,45.54
2023-04-15T17:36:12.715Z,45.70
2023-04-15T17:38:39.276Z,45.61
2023-04-15T17:41:05.845Z,45.82
2023-04-15T17:43:32.408Z,45.79
2023-04-15T17:45:58.967Z,45.57
2023-04-15T17:48:25.542Z,45.43
2023-04-15T17:50:52.206Z,45.59
2023-04-15T17:53:18.803Z,45.64
2023-04-15T17:55:45.362Z,45.56
2023-04-15T17:58:11.933Z,45.62
2023-04-15T18:00:38.485Z,45.63
2023-04-15T18:03:05.178Z,45.80
2023-04-15T18:05:31.827Z,45.58
2023-04-15T18:07:58.421Z,45.50
2023-04-15T18:10:24.994Z,45.63
2023-04-15T18:12:51.544Z,45.61
2023-04-15T18:15:18.088Z,45.64
2023-04-15T18:17:44.705Z,45.69
2023-04-15T18:20:11.310Z,45.49
2023-04-15T18:22:37.884Z,45.65
2023-04-15T18:25:04.647Z,45.56
2023-04-15T18:27:31.255Z,45.48
2023-04-15T18:29:57.818Z,45.43
2023-04-15T18:32:24.390Z,45.56
2023-04-15T18:34:50.962Z,45.51
2023-04-15T18:37:17.522Z,45.54
2023-04-15T18:39:44.149Z,45.58
2023-04-15T18:42:10.724Z,45.52
2023-04-15T18:44:37.280Z,45.56
2023-04-15T18:47:03.830Z,45.53
2023-04-15T18:51:56.890Z,45.66
2023-04-15T18:54:23.464Z,45.42
2023-04-15T18:56:50.019Z,45.35
2023-04-15T18:59:29.538Z,45.53
2023-04-15T19:01:57.219Z,45.36
2023-04-15T19:04:23.890Z,45.48
2023-04-15T19:06:50.474Z,45.54
2023-04-15T19:09:17.054Z,45.37
2023-04-15T19:11:43.630Z,45.43
2023-04-15T19:14:10.169Z,45.17
2023-04-15T19:16:36.758Z,45.20
2023-04-15T19:19:03.474Z,45.41
2023-04-15T19:21:30.247Z,45.48
2023-04-15T19:23:56.811Z,45.40
2023-04-15T19:26:23.364Z,45.38
2023-04-15T19:28:49.931Z,45.29
2023-04-15T19:31:16.506Z,45.20
2023-04-15T19:33:43.138Z,45.20
2023-04-15T19:36:09.710Z,45.44
2023-04-15T19:38:36.319Z,45.46
2023-04-15T19:41:02.911Z,45.28
2023-04-15T19:43:29.456Z,45.38
2023-04-15T19:45:56.042Z,45.41
2023-04-15T19:48:22.626Z,45.24
2023-04-15T19:50:49.182Z,45.21
2023-04-15T19:53:15.729Z,45.27
2023-04-15T19:55:42.276Z,45.27
2023-04-15T19:58:08.853Z,45.35
2023-04-15T20:00:35.425Z,45.14
2023-04-15T20:03:02.175Z,45.31
2023-04-15T20:05:28.917Z,45.22
2023-04-15T20:07:55.476Z,45.05
2023-04-15T20:10:22.047Z,45.16
2023-04-15T20:12:52.255Z,44.88
2023-04-15T20:15:19.868Z,44.90
2023-04-15T20:17:46.498Z,45.13
2023-04-15T20:20:13.148Z,45.01
2023-04-15T20:22:39.713Z,45.18
2023-04-15T20:25:06.280Z,45.03
2023-04-15T20:27:32.857Z,44.96
2023-04-15T20:29:59.428Z,44.96
2023-04-15T20:32:26.044Z,45.21
2023-04-15T20:34:52.642Z,45.35
2023-04-15T20:37:19.197Z,45.08
2023-04-15T20:39:45.747Z,45.08
2023-04-15T20:42:12.306Z,45.00
2023-04-15T20:44:38.917Z,45.09
2023-04-15T20:47:05.567Z,45.02
2023-04-15T20:49:32.154Z,44.97
2023-04-15T20:51:58.689Z,44.96
2023-04-15T20:54:25.253Z,45.08
2023-04-15T20:56:51.801Z,45.14
2023-04-15T20:59:18.353Z,44.86
2023-04-15T21:01:44.926Z,45.06
2023-04-15T21:04:11.505Z,44.78
2023-04-15T21:06:38.037Z,44.99
2023-04-15T21:09:04.830Z,44.89
2023-04-15T21:11:53.408Z,44.92
2023-04-15T21:14:18.063Z,44.96
2023-04-15T21:16:44.697Z,44.76
2023-04-15T21:19:11.246Z,44.87
2023-04-15T21:21:37.825Z,44.89
2023-04-15T21:24:04.382Z,45.11
2023-04-15T21:26:30.946Z,44.96
2023-04-15T21:28:57.506Z,44.80
2023-04-15T21:31:24.127Z,44.82
2023-04-15T21:33:50.742Z,44.76
2023-04-15T21:36:17.290Z,44.88
2023-04-15T21:38:43.829Z,44.91
2023-04-15T21:41:10.389Z,44.87
2023-04-15T21:43:36.938Z,44.75
2023-04-15T21:46:22.868Z,44.86
2023-04-15T21:48:50.042Z,44.77
2023-04-15T21:51:16.608Z,44.95
2023-04-15T21:53:43.144Z,44.90
2023-04-15T21:56:09.691Z,44.81
2023-04-15T21:58:36.258Z,44.70
2023-04-15T22:01:02.845Z,44.96
2023-04-15T22:03:29.593Z,44.96
2023-04-15T22:05:56.324Z,44.96
2023-04-15T22:08:22.893Z,44.70
2023-04-15T22:10:49.488Z,44.92
2023-04-15T22:13:16.058Z,44.90
2023-04-15T22:15:42.620Z,44.83
2023-04-15T22:18:09.187Z,44.77
2023-04-15T22:20:35.743Z,44.90
2023-04-15T22:23:02.320Z,44.77
2023-04-15T22:25:28.883Z,44.71
2023-04-15T22:27:55.443Z,44.86
2023-04-15T22:30:22.017Z,44.79
2023-04-15T22:32:48.595Z,44.75
2023-04-15T22:35:15.146Z,44.81
2023-04-15T22:37:41.697Z,44.86
2023-04-15T22:40:08.261Z,44.72
2023-04-15T22:42:34.829Z,44.75
2023-04-15T22:45:01.376Z,44.80
2023-04-15T22:47:27.993Z,44.87
2023-04-15T22:49:54.594Z,44.63
2023-04-15T22:52:30.134Z,44.57
2023-04-15T22:54:57.361Z,44.56
2023-04-15T22:57:23.964Z,44.80
2023-04-15T22:59:50.562Z,44.97
2023-04-15T23:02:17.299Z,44.67
2023-04-15T23:04:44.032Z,44.75
2023-04-15T23:07:10.649Z,44.79
2023-04-15T23:09:37.207Z,44.80
2023-04-15T23:12:03.782Z,44.97
2023-04-15T23:14:30.355Z,44.86
2023-04-15T23:16:57.003Z,44.76
2023-04-15T23:19:23.561Z,44.68
2023-04-15T23:21:50.186Z,44.70
2023-04-15T23:24:16.740Z,44.54
2023-04-15T23:26:43.685Z,44.61
2023-04-15T23:29:10.495Z,44.60
2023-04-15T23:31:37.305Z,44.81
2023-04-15T23:34:03.894Z,44.62
2023-04-15T23:36:30.459Z,44.50
2023-04-15T23:38:57.007Z,44.46
2023-04-15T23:41:23.551Z,44.46
2023-04-15T23:43:50.091Z,44.45
2023-04-15T23:46:16.630Z,44.54
2023-04-15T23:48:43.198Z,44.42
2023-04-15T23:51:09.756Z,44.48
2023-04-15T23:53:36.300Z,44.45
2023-04-15T23:56:02.850Z,44.48
2023-04-15T23:58:29.404Z,44.44
